Time;durP1;ratioP1;P1;durP2;ratioP2;P2;SDS_P1;SDS_P2;PMS_P1;PMS_P2;Temp;Humidity;BMP_temperature;BMP_pressure;BME280_temperature;BME280_humidity;BME280_pressure;Samples;Min_cycle;Max_cycle;Signal;HPM_P1;HPM_P2
2022/04/29 00:02:08;;;;;;;24.67;10.55;;;;;;;5.63;56.02;101758.31;5073401;28;20033;-67
2022/04/29 00:04:36;;;;;;;20.67;10.70;;;;;;;5.64;56.28;101753.13;5074388;28;20045;-68
2022/04/29 00:07:02;;;;;;;19.23;10.25;;;;;;;5.63;56.14;101753.97;5075675;28;20033;-67
2022/04/29 00:09:28;;;;;;;24.83;11.18;;;;;;;5.52;56.58;101758.09;5073996;28;20138;-67
2022/04/29 00:11:54;;;;;;;18.02;9.00;;;;;;;5.41;57.00;101754.38;5075669;28;20060;-67
2022/04/29 00:14:20;;;;;;;17.63;9.00;;;;;;;5.29;57.21;101756.72;5075235;28;20078;-68
2022/04/29 00:16:45;;;;;;;24.15;10.70;;;;;;;5.15;57.72;101762.50;5074876;28;20029;-69
2022/04/29 00:19:11;;;;;;;20.73;9.18;;;;;;;5.15;57.73;101765.13;5075303;28;20032;-68
2022/04/29 00:21:36;;;;;;;17.48;8.10;;;;;;;5.16;57.79;101772.06;5054353;28;20106;-68
2022/04/29 00:24:02;;;;;;;15.07;7.60;;;;;;;5.14;57.89;101768.53;5063101;28;20115;-68
2022/04/29 00:26:27;;;;;;;17.52;9.02;;;;;;;5.21;57.55;101763.47;5076521;28;20041;-67
2022/04/29 00:28:53;;;;;;;19.80;9.73;;;;;;;5.30;57.41;101761.94;5075778;28;20421;-67
2022/04/29 00:31:18;;;;;;;16.67;9.65;;;;;;;5.25;57.52;101765.31;5041192;28;20449;-67
2022/04/29 00:33:44;;;;;;;20.60;10.25;;;;;;;5.25;57.41;101767.91;5074128;28;20073;-67
2022/04/29 00:36:09;;;;;;;22.95;9.50;;;;;;;5.24;57.73;101763.56;5072690;28;20518;-66
2022/04/29 00:38:35;;;;;;;20.75;10.10;;;;;;;5.27;57.47;101771.44;5075567;28;20041;-67
2022/04/29 00:41:00;;;;;;;17.85;9.02;;;;;;;5.30;57.36;101768.88;5078745;28;20173;-68
2022/04/29 00:43:26;;;;;;;14.32;7.78;;;;;;;5.49;56.92;101771.06;5073633;28;20040;-69
2022/04/29 00:45:52;;;;;;;21.95;9.10;;;;;;;5.49;56.77;101763.22;5057139;28;20170;-68
2022/04/29 00:48:17;;;;;;;15.52;7.13;;;;;;;5.37;56.97;101756.03;5072681;28;20131;-68
2022/04/29 00:50:44;;;;;;;15.20;7.55;;;;;;;5.38;57.01;101759.50;5077937;28;20106;-68
2022/04/29 00:53:12;;;;;;;16.20;6.95;;;;;;;5.35;57.05;101755.13;5077374;28;20613;-68
2022/04/29 00:55:39;;;;;;;16.35;7.97;;;;;;;5.32;57.04;101764.59;5072577;28;20077;-68
2022/04/29 00:58:06;;;;;;;18.25;8.80;;;;;;;4.77;58.78;101753.78;5056776;28;20032;-67
2022/04/29 01:00:32;;;;;;;14.13;7.07;;;;;;;4.66;59.03;101755.25;5074953;28;20041;-68
2022/04/29 01:03:00;;;;;;;13.35;7.18;;;;;;;4.66;59.02;101753.53;5074987;28;20044;-68
2022/04/29 01:05:25;;;;;;;14.15;6.95;;;;;;;4.56;59.40;101751.56;5070630;28;20059;-68
2022/04/29 01:07:51;;;;;;;14.80;7.80;;;;;;;4.51;59.60;101745.38;5072613;28;20025;-69
2022/04/29 01:10:20;;;;;;;13.25;7.25;;;;;;;4.53;59.63;101751.47;5055412;28;20074;-69
2022/04/29 01:12:57;;;;;;;15.70;8.00;;;;;;;4.56;59.42;101753.28;5077172;28;20074;-69
2022/04/29 01:15:23;;;;;;;15.85;7.18;;;;;;;4.49;59.54;101747.03;5073582;28;20036;-67
2022/04/29 01:17:52;;;;;;;17.02;8.43;;;;;;;4.42;59.63;101739.91;5074688;28;20028;-68
2022/04/29 01:20:20;;;;;;;14.25;7.35;;;;;;;4.46;59.71;101746.94;5072911;28;20039;-68
2022/04/29 01:22:46;;;;;;;14.95;7.75;;;;;;;4.51;59.81;101747.97;5072540;28;20036;-67
2022/04/29 01:25:13;;;;;;;14.35;7.40;;;;;;;4.54;59.54;101745.41;5057953;28;20119;-67
2022/04/29 01:27:39;;;;;;;14.48;6.72;;;;;;;4.58;59.37;101742.03;5061550;28;20087;-68
2022/04/29 01:30:13;;;;;;;14.98;8.23;;;;;;;4.49;60.31;101736.63;5056722;28;20028;-68
2022/04/29 01:32:40;;;;;;;15.13;7.22;;;;;;;4.51;59.79;101732.34;5073475;28;20032;-68
2022/04/29 01:35:08;;;;;;;15.48;7.25;;;;;;;4.52;59.66;101731.50;5061034;28;20040;-67
2022/04/29 01:37:34;;;;;;;14.70;7.65;;;;;;;4.52;59.69;101731.50;5072816;28;20048;-68
2022/04/29 01:40:00;;;;;;;16.58;8.52;;;;;;;4.50;59.63;101729.69;5074183;28;20449;-68
2022/04/29 01:42:26;;;;;;;19.15;8.48;;;;;;;4.45;59.76;101727.84;5077584;28;20044;-70
2022/04/29 01:44:52;;;;;;;17.42;8.50;;;;;;;4.47;59.82;101730.50;5055679;28;20067;-68
2022/04/29 01:47:17;;;;;;;16.70;8.23;;;;;;;4.50;59.98;101727.97;5054471;28;20076;-68
2022/04/29 01:49:43;;;;;;;15.35;7.35;;;;;;;4.48;59.85;101727.06;5036152;28;20156;-69
2022/04/29 01:52:09;;;;;;;20.08;8.75;;;;;;;4.43;60.01;101720.88;5070001;28;20399;-67
2022/04/29 01:54:35;;;;;;;18.42;9.05;;;;;;;4.44;59.96;101728.72;5070514;28;20028;-68
2022/04/29 01:57:01;;;;;;;14.00;7.93;;;;;;;4.43;59.81;101723.47;5072633;28;20036;-68
2022/04/29 01:59:29;;;;;;;13.55;6.80;;;;;;;4.37;60.21;101718.97;5055325;28;20464;-69
2022/04/29 02:01:56;;;;;;;16.38;9.07;;;;;;;4.31;60.46;101716.25;5076279;28;20028;-68
2022/04/29 02:04:21;;;;;;;15.60;8.27;;;;;;;4.30;60.35;101722.25;5055427;28;20053;-69
2022/04/29 02:06:47;;;;;;;14.63;7.28;;;;;;;4.30;60.38;101719.66;5071997;28;20041;-68
2022/04/29 02:09:12;;;;;;;19.33;8.95;;;;;;;4.37;60.31;101718.97;5073302;28;20116;-68
2022/04/29 02:11:38;;;;;;;19.05;7.47;;;;;;;4.66;59.87;101719.69;5073598;28;20031;-69
2022/04/29 02:14:03;;;;;;;16.90;8.00;;;;;;;4.89;58.85;101728.03;5072509;28;20079;-68
2022/04/29 02:16:29;;;;;;;16.75;9.82;;;;;;;5.01;58.28;101722.22;5038178;28;20033;-70
2022/04/29 02:18:54;;;;;;;27.33;17.02;;;;;;;5.00;58.73;101712.66;5076361;28;20082;-70
2022/04/29 02:21:20;;;;;;;26.70;14.73;;;;;;;5.05;58.63;101716.25;5073036;28;20043;-68
2022/04/29 02:23:46;;;;;;;15.75;10.85;;;;;;;5.06;58.75;101719.72;5071998;28;20400;-69
2022/04/29 02:26:12;;;;;;;20.50;11.50;;;;;;;5.07;59.01;101719.78;5071907;28;20040;-69
2022/04/29 02:28:37;;;;;;;16.27;9.00;;;;;;;5.08;59.01;101720.66;5071915;28;20124;-70
2022/04/29 02:31:03;;;;;;;21.27;11.68;;;;;;;5.02;59.14;101716.16;5054638;28;20035;-67
2022/04/29 02:33:29;;;;;;;22.00;12.80;;;;;;;5.01;58.76;101717.00;5071344;28;20036;-68
2022/04/29 02:35:55;;;;;;;21.70;14.63;;;;;;;5.04;58.54;101719.69;5071890;28;20065;-68
2022/04/29 02:38:21;;;;;;;22.23;13.35;;;;;;;4.94;59.14;101720.31;5071280;28;20085;-68
2022/04/29 02:40:50;;;;;;;27.00;14.82;;;;;;;4.92;59.34;101711.63;5071940;28;20444;-69
2022/04/29 02:43:16;;;;;;;18.13;9.20;;;;;;;4.98;59.28;101710.84;5072109;28;20032;-68
2022/04/29 02:45:41;;;;;;;13.82;7.45;;;;;;;5.00;59.31;101710.06;5071446;28;20051;-70
2022/04/29 02:48:07;;;;;;;14.95;8.40;;;;;;;5.05;59.22;101705.81;5051641;28;20044;-67
2022/04/29 02:50:33;;;;;;;15.52;7.72;;;;;;;5.08;59.24;101705.88;5039108;28;20556;-68
2022/04/29 02:52:58;;;;;;;15.32;7.60;;;;;;;5.09;59.06;101699.81;5075034;28;20075;-69
2022/04/29 02:55:23;;;;;;;18.45;7.95;;;;;;;5.07;59.15;101701.53;5073335;28;20032;-69
2022/04/29 02:57:49;;;;;;;16.63;8.18;;;;;;;4.98;59.23;101705.66;5034600;28;20479;-68
2022/04/29 03:00:14;;;;;;;16.75;8.15;;;;;;;4.94;59.14;101704.69;5069827;28;20036;-68
2022/04/29 03:02:40;;;;;;;20.02;10.30;;;;;;;4.91;59.37;101700.31;5072955;28;20123;-69
2022/04/29 03:05:07;;;;;;;21.98;9.98;;;;;;;4.89;59.21;101707.19;5076937;28;20486;-67
2022/04/29 03:07:35;;;;;;;19.05;10.57;;;;;;;4.75;59.46;101698.22;5071932;28;20036;-68
2022/04/29 03:10:01;;;;;;;21.63;9.90;;;;;;;4.56;60.13;101696.91;5072612;28;20043;-68
2022/04/29 03:12:26;;;;;;;21.08;9.90;;;;;;;4.52;60.40;101705.47;5073686;28;20028;-69
2022/04/29 03:14:51;;;;;;;18.45;9.02;;;;;;;4.53;60.27;101701.13;5071708;28;20488;-70
2022/04/29 03:20:02;;;;;;;19.73;8.40;;;;;;;4.51;60.13;101703.72;5077106;28;20078;-68
2022/04/29 03:22:28;;;;;;;17.05;9.32;;;;;;;4.59;60.28;101702.19;5054300;28;20094;-69
2022/04/29 03:24:54;;;;;;;17.88;8.48;;;;;;;4.63;60.12;101701.41;5072632;28;20036;-69
2022/04/29 03:27:20;;;;;;;16.52;8.35;;;;;;;4.68;60.12;101699.78;5054179;28;20255;-68
2022/04/29 03:29:46;;;;;;;16.55;9.07;;;;;;;4.77;59.85;101698.22;5071248;28;20112;-68
2022/04/29 03:32:12;;;;;;;13.43;7.25;;;;;;;4.83;59.67;101698.38;5069912;28;20041;-68
2022/04/29 03:34:37;;;;;;;22.60;10.77;;;;;;;4.80;59.95;101699.19;5070890;28;20036;-69
2022/04/29 03:37:03;;;;;;;19.75;9.75;;;;;;;4.77;60.09;101687.81;5072592;28;20033;-67
2022/04/29 03:39:29;;;;;;;19.70;9.70;;;;;;;4.83;60.29;101690.56;5077841;28;20468;-70
2022/04/29 03:41:54;;;;;;;18.13;9.90;;;;;;;4.79;60.41;101688.72;5072233;28;20032;-68
2022/04/29 03:44:20;;;;;;;20.67;9.80;;;;;;;4.64;60.66;101695.34;5070729;28;20040;-68
2022/04/29 03:46:45;;;;;;;18.10;9.23;;;;;;;4.56;61.18;101691.69;5058371;28;20032;-69
2022/04/29 03:51:55;;;;;;;16.20;9.57;;;;;;;4.59;61.13;101691.75;5072635;28;20059;-69
2022/04/29 03:54:21;;;;;;;18.90;10.60;;;;;;;4.82;60.61;101694.00;5073788;28;21930;-70
2022/04/29 03:56:46;;;;;;;17.80;10.20;;;;;;;4.86;60.27;101688.88;5070270;28;20163;-69
2022/04/29 03:59:12;;;;;;;20.55;10.10;;;;;;;4.93;60.04;101693.41;5070768;28;20097;-68
2022/04/29 04:01:37;;;;;;;15.27;9.48;;;;;;;5.03;59.74;101689.28;5054849;28;20068;-70
2022/04/29 04:04:03;;;;;;;18.23;9.25;;;;;;;5.03;59.86;101688.41;5076290;28;20052;-68
2022/04/29 04:09:13;;;;;;;17.98;9.30;;;;;;;5.06;60.00;101681.50;5072213;28;20089;-69
2022/04/29 04:11:38;;;;;;;18.20;9.68;;;;;;;5.18;59.75;101694.81;5070503;28;20024;-68
2022/04/29 04:14:04;;;;;;;15.02;7.85;;;;;;;5.26;59.55;101691.50;5070866;28;20036;-67
2022/04/29 04:16:30;;;;;;;11.43;7.25;;;;;;;5.24;59.37;101688.88;5070368;28;20124;-68
2022/04/29 04:18:55;;;;;;;18.05;9.15;;;;;;;5.52;59.02;101698.13;5075372;28;20032;-69
2022/04/29 04:21:20;;;;;;;17.48;8.55;;;;;;;5.68;58.67;101692.34;5070688;28;20069;-69
2022/04/29 04:23:46;;;;;;;18.00;9.10;;;;;;;5.80;58.29;101696.06;5033890;28;20035;-66
2022/04/29 04:26:11;;;;;;;15.55;8.50;;;;;;;5.86;58.21;101690.94;5071902;28;20042;-67
2022/04/29 04:28:37;;;;;;;16.30;8.45;;;;;;;5.99;57.81;101692.09;5037236;28;20120;-67
2022/04/29 04:31:02;;;;;;;15.02;7.72;;;;;;;6.07;57.76;101690.50;5072712;28;20024;-67
2022/04/29 04:33:28;;;;;;;15.48;8.07;;;;;;;6.17;57.41;101681.97;5072853;28;20123;-67
2022/04/29 04:35:53;;;;;;;17.15;8.15;;;;;;;6.25;57.67;101700.34;5075427;28;20025;-68
2022/04/29 04:38:19;;;;;;;14.68;7.60;;;;;;;6.47;57.10;101692.03;5074490;28;20036;-69
2022/04/29 04:40:44;;;;;;;14.23;7.63;;;;;;;6.70;56.49;101688.88;5075520;28;20090;-68
2022/04/29 04:43:10;;;;;;;16.13;8.10;;;;;;;6.80;56.29;101696.03;5071289;28;20094;-69
2022/04/29 04:45:35;;;;;;;14.77;7.70;;;;;;;6.94;56.15;101694.47;5077127;28;20411;-69
2022/04/29 04:48:00;;;;;;;15.15;7.78;;;;;;;7.12;55.74;101699.97;5074058;28;20032;-70
2022/04/29 04:50:26;;;;;;;14.80;7.28;;;;;;;7.28;55.45;101694.94;5074611;28;20094;-69
2022/04/29 04:52:51;;;;;;;16.23;8.40;;;;;;;7.43;55.22;101697.75;5082402;28;20033;-68
2022/04/29 04:55:17;;;;;;;14.23;7.85;;;;;;;7.46;55.45;101697.78;5073491;28;20043;-69
2022/04/29 04:57:42;;;;;;;13.77;8.38;;;;;;;7.55;55.44;101695.28;5055898;28;20375;-69
2022/04/29 05:00:09;;;;;;;13.98;6.47;;;;;;;7.70;55.04;101698.91;5075497;28;20148;-68
2022/04/29 05:02:34;;;;;;;15.10;7.50;;;;;;;7.84;54.97;101692.09;5081528;28;20035;-68
2022/04/29 05:04:59;;;;;;;11.95;6.78;;;;;;;8.00;54.73;101708.84;5076163;28;20052;-69
2022/04/29 05:07:25;;;;;;;17.13;7.20;;;;;;;8.10;54.69;101706.34;5072913;28;20036;-68
2022/04/29 05:09:50;;;;;;;15.38;7.15;;;;;;;8.17;54.70;101706.38;5052885;28;20037;-68
2022/04/29 05:12:16;;;;;;;11.45;6.85;;;;;;;8.18;54.57;101709.03;5074910;28;20549;-68
2022/04/29 05:14:41;;;;;;;15.02;7.75;;;;;;;8.21;55.07;101716.00;5076059;28;20032;-68
2022/04/29 05:17:07;;;;;;;14.93;7.60;;;;;;;8.24;55.16;101714.31;5077781;28;20380;-68
2022/04/29 05:19:32;;;;;;;12.13;7.25;;;;;;;8.34;54.79;101715.28;5091154;28;20464;-68
2022/04/29 05:21:58;;;;;;;13.25;6.72;;;;;;;8.51;54.53;101710.22;5054107;28;20029;-70
2022/04/29 05:24:23;;;;;;;12.90;6.90;;;;;;;8.67;54.30;101719.94;5063862;28;20391;-69
2022/04/29 05:26:49;;;;;;;11.98;7.00;;;;;;;8.90;53.89;101722.72;5072162;28;20056;-67
2022/04/29 05:29:14;;;;;;;10.15;6.13;;;;;;;9.05;53.71;101714.94;5056164;28;20061;-66
2022/04/29 05:31:40;;;;;;;11.38;6.28;;;;;;;9.02;53.97;101712.31;5089726;28;20028;-67
2022/04/29 05:34:06;;;;;;;11.68;6.85;;;;;;;8.92;55.14;101714.88;5085710;28;20105;-66
2022/04/29 05:36:35;;;;;;;14.88;6.68;;;;;;;8.92;55.30;101722.72;5073934;28;20040;-67
2022/04/29 05:44:28;;;;;;;12.77;6.90;;;;;;;9.21;55.25;101718.53;5063533;28;20040;-66
2022/04/29 05:46:54;;;;;;;16.02;9.15;;;;;;;9.66;54.66;101716.97;5073103;28;20419;-67
2022/04/29 05:49:19;;;;;;;24.33;15.20;;;;;;;9.43;55.70;101722.13;5073275;28;20031;-66
2022/04/29 05:51:45;;;;;;;15.50;9.48;;;;;;;9.53;56.04;101720.41;5074682;28;20039;-68
2022/04/29 05:54:10;;;;;;;12.90;7.50;;;;;;;9.61;55.62;101723.94;5074301;28;20050;-66
2022/04/29 05:56:35;;;;;;;12.10;6.75;;;;;;;9.74;55.78;101717.00;5074741;28;20120;-68
2022/04/29 05:59:01;;;;;;;14.85;7.65;;;;;;;9.82;56.50;101724.03;5083829;28;20033;-67
2022/04/29 06:01:26;;;;;;;20.70;8.73;;;;;;;10.06;56.62;101738.09;5069965;28;20449;-67
2022/04/29 06:03:52;;;;;;;14.60;8.13;;;;;;;10.41;55.39;101730.25;5072783;28;20044;-68
2022/04/29 06:06:17;;;;;;;15.63;8.40;;;;;;;10.19;56.51;101734.59;5074245;28;20075;-67
2022/04/29 06:08:43;;;;;;;15.73;7.78;;;;;;;10.59;55.93;101730.28;5074266;28;20123;-67
2022/04/29 06:11:08;;;;;;;16.05;7.72;;;;;;;10.89;54.95;101731.16;5073389;28;20422;-68
2022/04/29 06:13:33;;;;;;;14.70;7.95;;;;;;;10.94;55.94;101739.03;5074322;28;20036;-67
2022/04/29 06:15:59;;;;;;;16.00;9.25;;;;;;;10.69;57.02;101741.69;5073206;28;20040;-67
2022/04/29 06:18:25;;;;;;;16.30;8.70;;;;;;;10.72;56.91;101746.91;5073637;28;20178;-67
2022/04/29 06:20:50;;;;;;;20.75;9.93;;;;;;;10.75;57.26;101744.28;5072373;28;20028;-67
2022/04/29 06:23:16;;;;;;;15.90;9.05;;;;;;;10.85;57.11;101729.38;5072490;28;20125;-67
2022/04/29 06:25:41;;;;;;;15.27;8.15;;;;;;;11.03;56.63;101737.25;5073929;28;20040;-68
2022/04/29 06:28:07;;;;;;;19.70;8.88;;;;;;;11.09;57.64;101732.00;5073020;28;20119;-67
2022/04/29 06:30:32;;;;;;;18.10;8.75;;;;;;;11.34;56.64;101732.78;5073964;28;20467;-67
2022/04/29 06:32:58;;;;;;;16.52;9.40;;;;;;;11.35;56.61;101734.53;5070097;28;20037;-68
2022/04/29 06:35:25;;;;;;;17.73;8.70;;;;;;;11.37;57.09;101742.44;5073087;28;20075;-67
2022/04/29 06:37:50;;;;;;;19.27;9.75;;;;;;;11.49;56.43;101747.66;5072685;28;20044;-68
2022/04/29 06:40:15;;;;;;;17.80;9.13;;;;;;;11.57;56.37;101745.00;5072525;28;20033;-67
2022/04/29 06:42:45;;;;;;;16.25;8.75;;;;;;;11.68;56.69;101742.28;5076680;28;20127;-68
2022/04/29 06:45:13;;;;;;;16.80;9.02;;;;;;;11.83;55.59;101743.13;5101341;28;20040;-68
2022/04/29 06:47:38;;;;;;;17.20;8.35;;;;;;;11.84;55.48;101750.13;5073564;28;20032;-67
2022/04/29 06:50:04;;;;;;;15.35;7.97;;;;;;;12.01;54.89;101747.44;5070884;28;20035;-67
2022/04/29 06:52:29;;;;;;;15.02;9.23;;;;;;;12.01;54.88;101742.16;5074861;28;20071;-68
2022/04/29 06:54:55;;;;;;;15.27;8.57;;;;;;;12.05;54.78;101743.03;5081578;28;20124;-67
2022/04/29 06:57:21;;;;;;;16.85;8.30;;;;;;;12.16;54.64;101741.16;5077776;28;20056;-67
2022/04/29 06:59:49;;;;;;;16.90;8.68;;;;;;;12.19;54.54;101750.84;5072280;28;20490;-67
2022/04/29 07:02:16;;;;;;;15.82;8.05;;;;;;;12.40;53.96;101748.03;5072070;28;20036;-67
2022/04/29 07:04:41;;;;;;;15.30;8.43;;;;;;;12.58;53.21;101745.25;5071256;28;20150;-67
2022/04/29 07:07:07;;;;;;;13.07;7.25;;;;;;;12.65;52.59;101745.22;5072427;28;20146;-67
2022/04/29 07:09:32;;;;;;;13.38;7.30;;;;;;;12.95;52.02;101744.94;5074035;28;20460;-67
2022/04/29 07:11:57;;;;;;;14.80;6.85;;;;;;;13.11;51.54;101743.00;5074465;28;20036;-68
2022/04/29 07:14:23;;;;;;;14.70;7.70;;;;;;;13.09;51.48;101752.72;5072464;28;20024;-68
2022/04/29 07:16:49;;;;;;;13.25;7.57;;;;;;;13.24;50.35;101743.78;5073611;28;20056;-68
2022/04/29 07:19:15;;;;;;;13.85;6.88;;;;;;;13.20;49.86;101745.53;5055296;28;20035;-68
2022/04/29 07:21:40;;;;;;;11.40;7.05;;;;;;;13.22;49.46;101743.78;5073682;28;20033;-67
2022/04/29 07:24:06;;;;;;;11.48;5.70;;;;;;;13.35;49.07;101744.53;5073358;28;20025;-67
2022/04/29 07:26:32;;;;;;;10.88;5.50;;;;;;;13.43;48.70;101742.69;5072051;28;20365;-66
2022/04/29 07:28:58;;;;;;;10.48;6.18;;;;;;;13.38;48.82;101744.50;5072232;28;20074;-68
2022/04/29 07:31:23;;;;;;;10.43;6.00;;;;;;;13.51;48.63;101745.22;5072104;28;20060;-68
2022/04/29 07:33:49;;;;;;;10.32;6.10;;;;;;;13.46;48.60;101752.34;5073366;28;20070;-68
2022/04/29 07:41:45;;;;;;;10.05;5.25;;;;;;;13.65;46.76;101742.44;5071886;28;20557;-67
2022/04/29 07:44:12;;;;;;;13.23;4.85;;;;;;;13.77;46.17;101742.28;5071958;28;20036;-68
2022/04/29 07:46:38;;;;;;;9.13;4.70;;;;;;;13.94;46.49;101744.69;5071851;28;20907;-68
2022/04/29 07:49:04;;;;;;;9.50;5.03;;;;;;;13.95;46.33;101744.66;5072391;28;20109;-67
2022/04/29 07:51:30;;;;;;;11.25;5.50;;;;;;;13.87;46.59;101741.25;5073139;28;20455;-67
2022/04/29 07:53:57;;;;;;;10.95;5.90;;;;;;;13.98;46.76;101739.31;5073088;28;20048;-68
2022/04/29 07:56:22;;;;;;;10.48;4.70;;;;;;;14.23;46.43;101738.97;5073223;28;20464;-67
2022/04/29 07:58:47;;;;;;;8.75;5.10;;;;;;;14.16;45.97;101737.31;5071984;28;20033;-68
2022/04/29 08:01:13;;;;;;;6.60;4.00;;;;;;;14.35;45.44;101735.25;5071950;28;20060;-68
2022/04/29 08:03:39;;;;;;;8.55;4.03;;;;;;;14.42;45.03;101737.78;5071734;28;20379;-67
2022/04/29 08:06:06;;;;;;;10.27;4.25;;;;;;;14.42;44.91;101727.22;5075364;28;20025;-68
2022/04/29 08:08:33;;;;;;;9.13;4.38;;;;;;;14.50;44.75;101745.63;5076047;28;20055;-68
2022/04/29 08:10:59;;;;;;;7.65;4.18;;;;;;;14.64;44.36;101733.06;5075802;28;20020;-68
2022/04/29 08:13:24;;;;;;;9.25;3.85;;;;;;;14.79;44.42;101729.25;5075516;28;20040;-68
2022/04/29 08:15:50;;;;;;;8.82;4.15;;;;;;;14.88;44.23;101728.22;5076995;28;20081;-68
2022/04/29 08:18:18;;;;;;;8.88;3.83;;;;;;;14.88;42.83;101737.06;5076953;28;20032;-67
2022/04/29 08:20:45;;;;;;;8.48;3.47;;;;;;;14.94;43.15;101728.97;5075365;28;20025;-68
2022/04/29 08:23:11;;;;;;;5.65;2.80;;;;;;;14.79;40.65;101731.91;5075511;28;20385;-69
2022/04/29 08:25:37;;;;;;;5.60;2.60;;;;;;;14.69;41.06;101730.34;5075072;28;20040;-68
2022/04/29 08:28:03;;;;;;;4.20;2.10;;;;;;;14.89;40.88;101727.34;5076764;28;20119;-68
2022/04/29 08:30:30;;;;;;;5.95;2.50;;;;;;;15.10;40.28;101726.06;5041791;28;20036;-68
2022/04/29 08:32:58;;;;;;;4.95;2.70;;;;;;;15.02;39.82;101723.56;5076742;28;20037;-68
2022/04/29 08:35:24;;;;;;;7.45;3.25;;;;;;;15.10;39.57;101720.75;5075098;28;20033;-69
2022/04/29 08:37:50;;;;;;;8.13;3.10;;;;;;;15.30;39.96;101718.59;5076439;28;20028;-69
2022/04/29 08:40:16;;;;;;;7.70;3.00;;;;;;;15.43;39.71;101720.06;5058570;28;20029;-69
2022/04/29 08:42:42;;;;;;;5.95;2.80;;;;;;;15.61;39.32;101718.84;5075002;28;20077;-69
2022/04/29 08:45:13;;;;;;;8.25;3.40;;;;;;;15.73;39.33;101720.38;5074931;28;20060;-70
2022/04/29 08:47:41;;;;;;;8.45;3.25;;;;;;;15.76;38.76;101713.25;5075042;28;20090;-69
2022/04/29 08:50:10;;;;;;;4.75;2.50;;;;;;;15.94;38.76;101717.25;5074928;28;20032;-70
2022/04/29 08:52:36;;;;;;;7.25;3.38;;;;;;;15.83;37.95;101724.56;5076394;28;20047;-69
2022/04/29 09:00:42;;;;;;;6.50;2.67;;;;;;;16.02;38.03;101715.28;5075182;28;20035;-70
2022/04/29 09:03:20;;;;;;;11.38;3.40;;;;;;;15.97;36.46;101722.47;5074283;28;20071;-69
2022/04/29 09:05:47;;;;;;;5.88;2.88;;;;;;;16.30;37.43;101719.06;5075363;28;20049;-68
2022/04/29 09:08:23;;;;;;;5.95;3.17;;;;;;;16.47;37.33;101716.88;5074534;28;20028;-69
2022/04/29 09:10:57;;;;;;;6.50;3.05;;;;;;;16.65;35.93;101712.91;5058198;28;20380;-70
2022/04/29 09:13:26;;;;;;;6.97;3.17;;;;;;;16.96;36.39;101713.00;5074417;28;20521;-70
2022/04/29 09:16:04;;;;;;;9.98;2.90;;;;;;;17.10;36.09;101701.97;5074823;28;20124;-72
2022/04/29 09:18:42;;;;;;;6.60;2.70;;;;;;;17.44;34.94;101708.09;5075638;28;20111;-72
2022/04/29 09:21:12;;;;;;;5.50;2.58;;;;;;;17.68;35.24;101708.28;5075831;28;20539;-72
2022/04/29 09:24:06;;;;;;;7.80;3.05;;;;;;;17.63;34.12;101708.41;5075464;28;20376;-71
2022/04/29 09:26:36;;;;;;;6.25;3.22;;;;;;;17.50;34.46;101709.69;5074204;28;20052;-71
2022/04/29 09:29:15;;;;;;;5.50;2.28;;;;;;;17.17;34.98;101711.53;5076345;28;20078;-71
2022/04/29 09:31:53;;;;;;;5.35;2.72;;;;;;;17.04;35.11;101708.34;5075059;28;20037;-72
2022/04/29 09:34:19;;;;;;;4.72;1.98;;;;;;;16.86;35.82;101709.69;5074313;28;20044;-70
2022/04/29 09:36:44;;;;;;;5.55;2.20;;;;;;;17.09;35.47;101706.44;5034492;28;20043;-70
2022/04/29 09:39:30;;;;;;;7.75;2.00;;;;;;;17.09;35.27;101708.22;5058794;28;20108;-70
2022/04/29 09:42:05;;;;;;;4.38;2.00;;;;;;;17.57;33.94;101697.09;5070836;28;20032;-71
2022/04/29 09:44:36;;;;;;;4.18;2.05;;;;;;;17.87;32.93;101693.53;5062562;28;20032;-71
2022/04/29 09:47:21;;;;;;;4.97;2.15;;;;;;;18.22;32.90;101687.06;5073678;28;20075;-70
2022/04/29 09:49:55;;;;;;;3.55;1.50;;;;;;;18.50;32.29;101690.63;5057933;28;20044;-71
2022/04/29 09:52:22;;;;;;;3.35;1.92;;;;;;;18.66;32.66;101691.81;5053773;28;20495;-70
2022/04/29 09:54:48;;;;;;;3.63;1.90;;;;;;;18.76;32.37;101685.31;5053227;28;20424;-71
2022/04/29 09:57:18;;;;;;;3.60;1.85;;;;;;;18.91;31.47;101692.75;5053513;28;20036;-71
2022/04/29 09:59:46;;;;;;;4.78;1.98;;;;;;;18.85;31.13;101687.63;5053443;28;20033;-70
2022/04/29 10:02:22;;;;;;;4.40;1.73;;;;;;;18.24;31.00;101699.47;5020870;28;20048;-70
2022/04/29 10:04:49;;;;;;;4.38;2.03;;;;;;;17.87;32.29;101693.53;5053219;28;20381;-72
2022/04/29 10:07:16;;;;;;;4.47;2.00;;;;;;;17.68;32.81;101695.84;5054365;28;20395;-69
2022/04/29 10:09:50;;;;;;;4.68;1.85;;;;;;;17.60;32.44;101686.38;5070942;28;20037;-70
2022/04/29 10:12:19;;;;;;;3.90;1.65;;;;;;;17.85;32.69;101686.53;5075124;28;20509;-71
2022/04/29 10:14:47;;;;;;;6.05;1.63;;;;;;;18.07;32.29;101692.03;5070789;28;20032;-70
2022/04/29 10:22:53;;;;;;;3.08;1.50;;;;;;;18.35;31.96;101686.66;5081218;28;20110;-70
2022/04/29 10:25:22;;;;;;;3.42;1.50;;;;;;;18.51;32.02;101681.69;5078226;28;20025;-72
2022/04/29 10:27:52;;;;;;;3.85;1.70;;;;;;;18.61;31.71;101683.13;5069131;28;20017;-73
2022/04/29 10:30:30;;;;;;;2.95;1.70;;;;;;;18.81;30.87;101683.34;5098953;28;20064;-72
2022/04/29 10:33:02;;;;;;;4.57;1.58;;;;;;;18.97;31.19;101680.13;5052915;28;20518;-74
2022/04/29 10:35:42;;;;;;;4.97;2.15;;;;;;;19.18;29.93;101676.69;5067428;28;20036;-69
2022/04/29 10:38:38;;;;;;;4.80;1.88;;;;;;;18.98;30.09;101680.06;5069110;28;20455;-72
2022/04/29 10:41:07;;;;;;;4.97;1.73;;;;;;;19.35;30.79;101678.72;5076926;28;20497;-72
2022/04/29 10:43:36;;;;;;;3.30;1.50;;;;;;;19.64;30.43;101680.31;5087430;28;20105;-71
2022/04/29 10:46:04;;;;;;;4.05;1.63;;;;;;;19.86;30.00;101665.19;5085345;28;20472;-72
2022/04/29 10:48:30;;;;;;;4.55;1.90;;;;;;;19.83;29.62;101684.00;5075689;28;20032;-72
2022/04/29 10:50:57;;;;;;;5.15;1.83;;;;;;;19.57;29.42;101681.44;5076448;28;20035;-73
2022/04/29 10:53:24;;;;;;;3.38;1.75;;;;;;;19.38;30.30;101687.47;5073061;28;20095;-74
2022/04/29 10:55:50;;;;;;;3.22;1.58;;;;;;;19.31;30.26;101677.97;5056111;28;20085;-72
2022/04/29 10:58:20;;;;;;;6.28;2.20;;;;;;;19.12;30.44;101676.94;5074321;28;20033;-71
2022/04/29 11:01:13;;;;;;;5.05;2.00;;;;;;;18.77;30.12;101678.19;5072365;28;20127;-73
2022/04/29 11:03:41;;;;;;;6.32;1.60;;;;;;;18.89;30.96;101673.28;5084332;28;20032;-72
2022/04/29 11:06:12;;;;;;;3.80;1.65;;;;;;;19.06;30.47;101669.13;5055263;28;20040;-73
2022/04/29 11:08:41;;;;;;;4.47;1.60;;;;;;;19.13;30.44;101665.34;5073321;28;20048;-72
2022/04/29 11:11:08;;;;;;;4.10;1.50;;;;;;;19.12;30.36;101663.59;5071951;28;20315;-73
2022/04/29 11:13:37;;;;;;;3.13;1.55;;;;;;;19.06;30.27;101663.81;5083621;28;20592;-71
2022/04/29 11:16:16;;;;;;;4.10;1.75;;;;;;;18.97;29.26;101665.03;5081462;28;20051;-74
2022/04/29 11:18:44;;;;;;;4.63;1.58;;;;;;;18.81;30.30;101664.72;5076478;28;20039;-72
2022/04/29 11:26:45;;;;;;;3.78;1.30;;;;;;;18.56;30.49;101666.47;5075119;28;20035;-72
2022/04/29 11:29:11;;;;;;;4.38;1.25;;;;;;;18.44;30.61;101668.63;5071701;28;20040;-72
2022/04/29 11:31:37;;;;;;;3.45;1.33;;;;;;;18.31;30.85;101672.63;5084842;28;20035;-71
2022/04/29 11:34:14;;;;;;;3.03;1.00;;;;;;;18.21;30.15;101664.06;5088808;28;20035;-74
2022/04/29 11:36:41;;;;;;;4.45;1.17;;;;;;;18.27;30.85;101668.28;5076259;28;20028;-72
2022/04/29 11:39:13;;;;;;;4.60;1.38;;;;;;;18.27;30.67;101662.09;5084027;28;20150;-73
2022/04/29 11:41:51;;;;;;;3.08;1.08;;;;;;;18.20;30.39;101669.44;5088422;28;20043;-71
2022/04/29 11:44:16;;;;;;;8.77;1.67;;;;;;;18.14;31.35;101669.63;5086183;28;20481;-74
2022/04/29 11:46:51;;;;;;;15.65;2.08;;;;;;;17.94;31.67;101673.78;5082480;28;20127;-72
2022/04/29 11:49:39;;;;;;;7.60;1.92;;;;;;;17.70;33.71;101672.75;5071261;28;20061;-72
2022/04/29 11:52:30;;;;;;;7.60;3.42;;;;;;;17.39;35.88;101682.56;5077651;28;20040;-73
2022/04/29 11:55:06;;;;;;;8.77;2.75;;;;;;;17.41;36.77;101672.78;5083207;28;20036;-72
2022/04/29 11:57:49;;;;;;;7.68;3.30;;;;;;;16.98;37.94;101671.34;5086974;28;20097;-72
2022/04/29 12:00:24;;;;;;;5.43;2.83;;;;;;;17.31;36.85;101677.47;5073808;28;20047;-71
2022/04/29 12:02:50;;;;;;;8.48;3.00;;;;;;;17.44;36.44;101673.56;5081197;28;20487;-71